Time;durP1;ratioP1;P1;durP2;ratioP2;P2;SDS_P1;SDS_P2;PMS_P1;PMS_P2;Temp;Humidity;BMP_temperature;BMP_pressure;BME280_temperature;BME280_humidity;BME280_pressure;Samples;Min_cycle;Max_cycle;Signal;HPM_P1;HPM_P2
2024/03/11 05:02:23;;;;;;;10.20;4.80;;;6.70;97.30;;;;;;5399959;23;20487;-87
2024/03/11 05:04:51;;;;;;;6.37;6.00;;;6.70;97.30;;;;;;4970058;28;20504;-89
2024/03/11 05:07:16;;;;;;;7.60;5.53;;;6.70;97.30;;;;;;4977177;28;20486;-90
2024/03/11 05:09:42;;;;;;;2.50;2.30;;;6.80;97.30;;;;;;4982681;28;20892;-87
2024/03/11 05:12:08;;;;;;;7.67;6.23;;;6.80;97.30;;;;;;4988943;28;20225;-86
2024/03/11 05:14:33;;;;;;;5.13;3.23;;;6.90;97.30;;;;;;4976430;28;20192;-88
2024/03/11 05:16:59;;;;;;;4.23;3.20;;;6.90;97.30;;;;;;4976167;28;20413;-86
2024/03/11 05:19:25;;;;;;;3.07;2.23;;;6.90;97.30;;;;;;4976427;28;20178;-86
2024/03/11 05:21:51;;;;;;;3.47;2.57;;;6.90;97.30;;;;;;4975224;28;20462;-85
2024/03/11 05:24:18;;;;;;;7.57;7.17;;;7.00;97.30;;;;;;4976766;28;20228;-86
2024/03/11 05:26:43;;;;;;;5.27;3.87;;;7.00;97.30;;;;;;4981246;28;20868;-86
2024/03/11 05:29:12;;;;;;;9.20;4.43;;;7.00;97.30;;;;;;4977362;28;20536;-87
2024/03/11 05:31:38;;;;;;;8.60;3.43;;;7.10;97.30;;;;;;4968044;23;20245;-67
2024/03/11 05:34:04;;;;;;;4.47;3.93;;;7.20;97.30;;;;;;4934969;28;20466;-68
2024/03/11 05:36:29;;;;;;;6.43;4.57;;;7.20;97.30;;;;;;4964656;28;20198;-68
2024/03/11 05:38:55;;;;;;;10.63;4.90;;;7.20;97.30;;;;;;4950518;28;20203;-68
2024/03/11 05:41:20;;;;;;;6.30;3.23;;;7.20;97.30;;;;;;4951853;28;20691;-68
2024/03/11 05:43:46;;;;;;;8.10;5.23;;;7.30;97.30;;;;;;4943418;28;20199;-67
2024/03/11 05:46:12;;;;;;;18.93;6.57;;;7.30;97.30;;;;;;4933651;29;20193;-67
2024/03/11 05:48:39;;;;;;;13.13;4.97;;;7.30;97.30;;;;;;4942458;28;20206;-67
2024/03/11 05:51:05;;;;;;;10.13;2.70;;;7.30;97.30;;;;;;4942653;28;20482;-67
2024/03/11 05:53:34;;;;;;;4.90;3.60;;;7.30;97.30;;;;;;4943984;29;20456;-67
2024/03/11 05:55:59;;;;;;;7.00;5.33;;;7.30;97.30;;;;;;4931589;29;20653;-67
2024/03/11 05:58:28;;;;;;;3.77;3.57;;;7.30;97.30;;;;;;4938351;29;20829;-67
2024/03/11 06:00:54;;;;;;;6.83;4.30;;;7.30;97.30;;;;;;4937827;28;20488;-67
2024/03/11 06:03:20;;;;;;;3.67;2.90;;;7.30;97.30;;;;;;4938344;29;20459;-67
2024/03/11 06:05:48;;;;;;;6.03;3.57;;;7.30;97.30;;;;;;4945561;29;20828;-67
2024/03/11 06:08:14;;;;;;;7.10;3.83;;;7.30;97.30;;;;;;4941317;29;20194;-67
2024/03/11 06:10:40;;;;;;;8.17;3.93;;;7.20;97.30;;;;;;4941206;28;20454;-66
2024/03/11 06:13:06;;;;;;;7.87;3.80;;;7.30;97.30;;;;;;4940234;29;20474;-67
2024/03/11 06:15:32;;;;;;;2.20;2.00;;;7.30;97.30;;;;;;4939043;29;20428;-66
2024/03/11 06:17:58;;;;;;;12.50;5.97;;;7.40;97.30;;;;;;4921573;29;20447;-66
2024/03/11 06:20:23;;;;;;;10.90;5.43;;;7.50;97.30;;;;;;4931350;29;20208;-66
2024/03/11 06:22:49;;;;;;;3.27;2.93;;;7.60;97.30;;;;;;4931490;29;20188;-66
2024/03/11 06:25:15;;;;;;;14.37;6.00;;;7.70;97.30;;;;;;4937807;29;20195;-66
2024/03/11 06:27:43;;;;;;;7.03;4.50;;;7.70;97.30;;;;;;4933929;29;20184;-66
2024/03/11 06:30:09;;;;;;;4.13;3.90;;;7.80;97.30;;;;;;4930698;29;20656;-66
2024/03/11 06:32:35;;;;;;;3.83;3.03;;;7.90;97.30;;;;;;4926471;29;20542;-66
2024/03/11 06:35:00;;;;;;;11.30;4.90;;;7.90;97.30;;;;;;4947025;29;20414;-66
2024/03/11 06:37:26;;;;;;;3.80;3.40;;;8.00;97.30;;;;;;4937967;29;20621;-66
2024/03/11 06:39:52;;;;;;;4.20;3.87;;;8.00;97.30;;;;;;4928525;29;20191;-66
2024/03/11 06:42:18;;;;;;;10.97;4.40;;;8.10;97.30;;;;;;4928533;29;20459;-66
2024/03/11 06:44:43;;;;;;;7.00;5.60;;;8.10;97.30;;;;;;4915097;29;20464;-67
2024/03/11 06:47:10;;;;;;;7.83;3.40;;;8.20;97.30;;;;;;4935425;29;20198;-66
2024/03/11 06:49:37;;;;;;;5.50;2.93;;;8.20;97.30;;;;;;4929633;29;20331;-65
2024/03/11 06:52:02;;;;;;;10.30;4.60;;;8.20;97.30;;;;;;4927212;29;20892;-67
2024/03/11 06:54:29;;;;;;;8.37;4.70;;;8.30;97.30;;;;;;4929128;29;20466;-66
2024/03/11 06:56:54;;;;;;;6.97;5.00;;;8.30;97.30;;;;;;4939618;29;20411;-67
2024/03/11 06:59:20;;;;;;;8.20;4.57;;;8.30;97.30;;;;;;4927104;29;20681;-67
2024/03/11 07:01:46;;;;;;;4.10;3.90;;;8.40;97.30;;;;;;4931841;29;20259;-67
2024/03/11 07:04:12;;;;;;;3.87;3.67;;;8.40;97.30;;;;;;4930922;29;20426;-67
2024/03/11 07:06:40;;;;;;;10.23;3.63;;;8.50;97.30;;;;;;4940688;29;20175;-67
2024/03/11 07:09:07;;;;;;;6.10;4.50;;;8.60;97.30;;;;;;4936553;28;20432;-66
2024/03/11 07:11:32;;;;;;;2.37;2.23;;;8.70;97.30;;;;;;4934654;29;20467;-67
2024/03/11 07:13:58;;;;;;;7.07;4.77;;;8.90;97.30;;;;;;4935469;29;20871;-67
2024/03/11 07:16:24;;;;;;;6.93;3.33;;;9.00;97.30;;;;;;4933976;29;20627;-68
2024/03/11 07:18:53;;;;;;;3.10;2.90;;;9.10;97.30;;;;;;4935916;29;20600;-67
2024/03/11 07:21:19;;;;;;;3.63;3.43;;;9.20;97.30;;;;;;4933175;28;20439;-67
2024/03/11 07:23:48;;;;;;;5.40;4.70;;;9.30;97.30;;;;;;4934918;29;20631;-67
2024/03/11 07:26:14;;;;;;;3.70;3.50;;;9.40;97.30;;;;;;4927845;29;20188;-68
2024/03/11 07:28:40;;;;;;;4.50;3.93;;;9.50;97.30;;;;;;4928263;29;20422;-68
2024/03/11 07:31:06;;;;;;;3.17;2.07;;;9.60;97.30;;;;;;4934587;29;20491;-67
2024/03/11 07:33:31;;;;;;;5.60;1.87;;;9.60;97.30;;;;;;4934930;29;20187;-67
2024/03/11 07:35:57;;;;;;;3.37;3.07;;;9.70;97.30;;;;;;4935912;29;20826;-69
2024/03/11 07:38:23;;;;;;;8.80;4.63;;;9.80;97.30;;;;;;4925742;29;20305;-67
2024/03/11 07:40:49;;;;;;;6.87;3.90;;;9.90;97.30;;;;;;4942497;28;20199;-67
2024/03/11 07:43:15;;;;;;;3.50;2.53;;;9.90;97.30;;;;;;4938251;28;20233;-67
2024/03/11 07:45:41;;;;;;;6.30;2.30;;;10.00;97.30;;;;;;4940520;29;20427;-67
2024/03/11 07:48:10;;;;;;;10.60;5.50;;;10.10;97.30;;;;;;4941257;29;20773;-66
2024/03/11 07:50:37;;;;;;;2.90;2.37;;;10.20;97.30;;;;;;4932656;29;20206;-68
2024/03/11 07:53:03;;;;;;;6.10;3.20;;;10.20;97.30;;;;;;4927714;29;20428;-66
2024/03/11 07:55:29;;;;;;;1.70;1.70;;;10.10;97.30;;;;;;4942002;29;20416;-67
2024/03/11 07:57:55;;;;;;;1.63;1.53;;;10.20;97.30;;;;;;4935813;29;20435;-67
2024/03/11 08:00:22;;;;;;;3.47;2.50;;;10.20;97.30;;;;;;4935876;29;20196;-67
2024/03/11 08:02:48;;;;;;;2.67;1.93;;;10.30;97.30;;;;;;4934947;29;20459;-67
2024/03/11 08:05:15;;;;;;;2.23;2.07;;;10.40;97.30;;;;;;4942368;29;20873;-70
2024/03/11 08:07:42;;;;;;;1.90;1.53;;;10.60;97.30;;;;;;4940813;29;21110;-70
2024/03/11 08:10:09;;;;;;;2.77;1.50;;;10.70;97.30;;;;;;4930857;29;21020;-67
2024/03/11 08:12:35;;;;;;;3.07;2.87;;;10.70;97.30;;;;;;4919692;29;20478;-67
2024/03/11 08:15:06;;;;;;;3.23;1.83;;;10.80;97.30;;;;;;4934936;29;20424;-67
2024/03/11 08:17:31;;;;;;;4.00;1.60;;;10.90;97.30;;;;;;4930390;29;20427;-67
2024/03/11 08:19:57;;;;;;;2.40;2.20;;;11.10;97.30;;;;;;4929977;29;20429;-66
2024/03/11 08:22:23;;;;;;;2.40;2.20;;;11.10;97.30;;;;;;4931641;29;20585;-66
2024/03/11 08:24:48;;;;;;;1.63;1.60;;;11.30;97.30;;;;;;4923490;29;20645;-67
2024/03/11 08:27:15;;;;;;;1.67;1.57;;;11.40;97.30;;;;;;4934619;29;20191;-69
2024/03/11 08:29:43;;;;;;;4.00;1.43;;;11.40;97.30;;;;;;4934865;29;20191;-72
2024/03/11 08:32:09;;;;;;;2.30;1.33;;;11.30;97.30;;;;;;4924935;29;20484;-68
2024/03/11 08:34:35;;;;;;;1.73;1.17;;;11.10;97.30;;;;;;4941364;29;20487;-69
2024/03/11 08:37:03;;;;;;;1.43;1.07;;;11.10;97.30;;;;;;4932951;29;20446;-69
2024/03/11 08:39:30;;;;;;;2.50;1.43;;;10.80;97.30;;;;;;4933365;29;20917;-68
2024/03/11 08:41:56;;;;;;;2.20;1.20;;;10.70;97.30;;;;;;4941073;29;20494;-68
2024/03/11 08:44:21;;;;;;;1.00;0.90;;;10.80;97.30;;;;;;4977419;23;20497;-82
2024/03/11 08:46:47;;;;;;;1.07;0.97;;;11.10;97.30;;;;;;4981901;28;20182;-83
2024/03/11 08:49:12;;;;;;;1.00;0.90;;;11.30;97.30;;;;;;4975708;28;20182;-83
2024/03/11 08:51:40;;;;;;;1.07;0.77;;;11.50;97.30;;;;;;4974978;28;20229;-82
2024/03/11 08:54:06;;;;;;;1.80;1.10;;;11.60;97.30;;;;;;4960193;28;20505;-83
2024/03/11 08:56:31;;;;;;;0.80;0.70;;;11.80;96.90;;;;;;4962449;28;20420;-82
2024/03/11 08:58:57;;;;;;;0.80;0.70;;;11.70;96.60;;;;;;4954801;28;20190;-83
2024/03/11 09:01:23;;;;;;;0.90;0.80;;;11.80;96.70;;;;;;4957362;28;20190;-83
2024/03/11 09:03:49;;;;;;;1.23;1.13;;;11.90;97.00;;;;;;4957353;28;20687;-83
2024/03/11 09:06:16;;;;;;;1.53;1.13;;;12.00;96.70;;;;;;4954033;28;20441;-82
2024/03/11 09:08:44;;;;;;;0.60;0.60;;;11.90;96.80;;;;;;4955801;28;20426;-83
2024/03/11 09:11:10;;;;;;;1.33;1.27;;;11.80;97.20;;;;;;4957370;28;20465;-83
2024/03/11 09:13:40;;;;;;;1.00;0.90;;;11.60;97.10;;;;;;4952369;28;20454;-83
2024/03/11 09:16:05;;;;;;;1.20;1.10;;;11.60;97.30;;;;;;4956908;28;20422;-83
2024/03/11 09:18:32;;;;;;;1.00;0.90;;;11.70;97.30;;;;;;4957112;28;20776;-82
2024/03/11 09:20:57;;;;;;;2.33;1.77;;;11.80;97.20;;;;;;4956135;28;20194;-82
2024/03/11 09:23:23;;;;;;;1.10;1.10;;;11.90;97.20;;;;;;4953343;28;20452;-82
2024/03/11 09:25:49;;;;;;;2.73;1.33;;;12.00;97.10;;;;;;4955347;28;20216;-82
2024/03/11 09:28:17;;;;;;;0.70;0.70;;;12.20;96.40;;;;;;4955314;28;20538;-82
2024/03/11 09:30:43;;;;;;;1.20;1.10;;;12.30;96.20;;;;;;4954883;28;20183;-82
2024/03/11 09:33:11;;;;;;;1.20;1.10;;;12.50;96.10;;;;;;4954579;28;20422;-82
2024/03/11 09:35:37;;;;;;;2.50;1.23;;;12.40;95.20;;;;;;4955382;28;20285;-82
2024/03/11 09:38:03;;;;;;;1.30;1.20;;;12.40;95.80;;;;;;4956369;28;20509;-82
2024/03/11 09:40:28;;;;;;;2.23;1.47;;;12.50;95.20;;;;;;4952356;28;20251;-82
2024/03/11 09:42:55;;;;;;;1.00;0.90;;;12.50;94.80;;;;;;4955897;28;20453;-82
2024/03/11 09:45:22;;;;;;;1.20;1.10;;;12.60;94.50;;;;;;4954159;28;20715;-82
2024/03/11 09:47:53;;;;;;;2.73;1.00;;;12.70;94.20;;;;;;4954948;28;20430;-82
2024/03/11 09:50:26;;;;;;;1.80;1.43;;;12.90;94.70;;;;;;4971236;28;20420;-82
2024/03/11 09:52:56;;;;;;;1.30;1.20;;;13.10;93.80;;;;;;4964885;28;20458;-82
2024/03/11 09:55:24;;;;;;;1.13;1.03;;;13.30;92.90;;;;;;4957181;28;20569;-83
2024/03/11 09:57:51;;;;;;;1.30;1.20;;;13.00;92.70;;;;;;4952030;28;20745;-82
2024/03/11 10:00:23;;;;;;;1.03;0.93;;;12.90;93.10;;;;;;4954763;28;20449;-82
2024/03/11 10:02:54;;;;;;;1.10;1.00;;;12.70;93.00;;;;;;4953571;28;20975;-82
2024/03/11 10:05:22;;;;;;;2.17;1.57;;;12.50;93.70;;;;;;4955459;28;20588;-83
2024/03/11 10:07:49;;;;;;;1.17;1.10;;;12.50;94.00;;;;;;4960282;28;20780;-84
2024/03/11 10:10:15;;;;;;;1.30;1.20;;;12.80;94.40;;;;;;4959264;28;20426;-82
2024/03/11 10:12:54;;;;;;;1.20;1.10;;;12.90;93.40;;;;;;4976374;28;20512;-82
2024/03/11 10:15:27;;;;;;;1.43;1.40;;;12.90;93.70;;;;;;4962939;28;20202;-82
2024/03/11 10:18:14;;;;;;;1.27;1.00;;;12.90;93.80;;;;;;4969512;28;20448;-82
2024/03/11 10:20:43;;;;;;;1.00;0.90;;;13.00;93.90;;;;;;4951603;28;20429;-82
2024/03/11 10:23:09;;;;;;;1.57;1.30;;;13.10;93.80;;;;;;4956697;28;20497;-83
2024/03/11 10:25:35;;;;;;;0.90;0.90;;;13.10;93.70;;;;;;4951294;28;21024;-84
2024/03/11 10:28:04;;;;;;;0.97;0.90;;;13.20;93.40;;;;;;4957749;28;20421;-82
2024/03/11 10:30:31;;;;;;;2.53;1.33;;;13.40;92.70;;;;;;4968977;28;20182;-83
2024/03/11 10:33:01;;;;;;;0.77;0.73;;;13.50;92.00;;;;;;4954804;28;20458;-82
2024/03/11 10:35:33;;;;;;;1.00;0.90;;;13.40;91.50;;;;;;4963314;28;20429;-82
2024/03/11 10:38:13;;;;;;;0.90;0.80;;;13.40;91.40;;;;;;4963997;28;20414;-82
2024/03/11 10:40:41;;;;;;;1.03;0.93;;;13.60;91.40;;;;;;4980807;28;20555;-82
2024/03/11 10:43:21;;;;;;;1.10;1.00;;;13.90;91.30;;;;;;4968633;28;20946;-82
2024/03/11 10:45:49;;;;;;;0.80;0.67;;;13.80;90.10;;;;;;4961178;28;20434;-82
2024/03/11 10:48:17;;;;;;;1.23;1.20;;;13.80;90.50;;;;;;4982429;28;20432;-82
2024/03/11 10:50:43;;;;;;;1.20;1.10;;;13.80;91.10;;;;;;4959925;28;20411;-82
2024/03/11 10:53:21;;;;;;;1.10;0.80;;;13.90;89.50;;;;;;4960816;28;20533;-82
2024/03/11 10:55:55;;;;;;;1.17;1.07;;;13.90;90.30;;;;;;4959494;28;20422;-83
2024/03/11 10:58:25;;;;;;;1.27;1.20;;;13.90;89.70;;;;;;4973427;28;20468;-82
2024/03/11 11:00:53;;;;;;;1.03;0.93;;;13.90;89.80;;;;;;4975435;28;20434;-83
2024/03/11 11:03:23;;;;;;;1.20;1.10;;;13.60;90.00;;;;;;4963588;28;20791;-83
2024/03/11 11:05:52;;;;;;;1.00;0.90;;;13.50;90.70;;;;;;4962812;28;20417;-83
2024/03/11 11:08:22;;;;;;;2.40;2.20;;;13.30;90.90;;;;;;4975293;28;20421;-83
2024/03/11 11:10:51;;;;;;;1.77;1.70;;;12.90;91.90;;;;;;4960111;28;20415;-85
2024/03/11 11:13:17;;;;;;;0.90;0.80;;;12.70;92.40;;;;;;4962743;28;20445;-85
2024/03/11 11:15:45;;;;;;;0.90;0.80;;;12.70;91.90;;;;;;4963898;28;20756;-84
2024/03/11 11:18:13;;;;;;;1.00;0.90;;;13.00;92.50;;;;;;4977709;28;20428;-83
2024/03/11 11:20:49;;;;;;;0.97;0.87;;;13.10;91.00;;;;;;4960639;28;20948;-83
2024/03/11 11:23:29;;;;;;;1.00;0.90;;;13.00;91.20;;;;;;4970473;28;20428;-83
2024/03/11 11:25:56;;;;;;;1.10;1.00;;;12.90;91.20;;;;;;4960119;28;20604;-83
2024/03/11 11:28:25;;;;;;;1.67;0.93;;;12.80;91.50;;;;;;4961896;28;20422;-83
2024/03/11 11:31:11;;;;;;;0.90;0.80;;;13.00;91.10;;;;;;4963295;28;20508;-83
2024/03/11 11:33:56;;;;;;;1.23;1.13;;;13.40;89.90;;;;;;4962393;28;20445;-83
2024/03/11 11:36:37;;;;;;;1.10;1.00;;;13.80;89.30;;;;;;4959671;28;20910;-83
2024/03/11 11:39:20;;;;;;;1.00;0.90;;;14.00;87.80;;;;;;4963151;28;20425;-83
2024/03/11 11:41:47;;;;;;;1.90;1.33;;;14.00;86.80;;;;;;4966191;28;20432;-83
2024/03/11 11:44:28;;;;;;;0.80;0.70;;;14.00;87.50;;;;;;4954719;28;20462;-83
2024/03/11 11:47:05;;;;;;;0.97;0.87;;;14.10;87.70;;;;;;4943052;28;20435;-84
2024/03/11 11:49:34;;;;;;;1.10;1.00;;;14.20;87.30;;;;;;4944176;28;20433;-83
2024/03/11 11:52:03;;;;;;;1.00;0.90;;;14.50;87.20;;;;;;4944242;28;20463;-83
2024/03/11 11:54:34;;;;;;;1.00;1.00;;;14.50;86.60;;;;;;4949724;28;20525;-82
2024/03/11 11:57:04;;;;;;;1.10;1.00;;;14.70;86.40;;;;;;4949704;28;20424;-83
2024/03/11 11:59:32;;;;;;;1.00;0.90;;;14.90;85.50;;;;;;4956458;28;20485;-84
2024/03/11 12:02:00;;;;;;;1.00;0.90;;;15.00;85.90;;;;;;4963694;28;20431;-84
2024/03/11 12:04:29;;;;;;;4.20;1.80;;;15.20;85.50;;;;;;4952994;28;20457;-83
2024/03/11 12:06:55;;;;;;;1.27;1.00;;;15.20;85.40;;;;;;4953822;28;21053;-83
2024/03/11 12:09:22;;;;;;;1.17;1.07;;;15.40;84.90;;;;;;4951850;28;20521;-83
2024/03/11 12:11:49;;;;;;;1.37;1.27;;;15.40;84.40;;;;;;4955600;28;20594;-82
2024/03/11 12:14:15;;;;;;;2.13;1.83;;;15.50;84.30;;;;;;4958901;28;20446;-84
2024/03/11 12:16:44;;;;;;;1.00;0.90;;;15.30;84.30;;;;;;4959875;28;20446;-83
2024/03/11 12:19:10;;;;;;;1.00;0.90;;;15.20;84.80;;;;;;4954466;28;20482;-83
2024/03/11 12:21:43;;;;;;;0.90;0.80;;;15.10;85.00;;;;;;4955061;28;20469;-83
2024/03/11 12:24:13;;;;;;;1.17;1.13;;;15.20;85.40;;;;;;4948743;28;20227;-83
2024/03/11 12:26:42;;;;;;;1.10;1.00;;;15.20;84.70;;;;;;4945960;28;20436;-83
2024/03/11 12:29:15;;;;;;;0.77;0.73;;;15.50;84.90;;;;;;4949490;28;20815;-84
2024/03/11 12:31:42;;;;;;;0.97;0.87;;;15.70;83.90;;;;;;4950148;28;20960;-84
2024/03/11 12:34:14;;;;;;;1.00;0.90;;;15.70;84.00;;;;;;4942370;28;20448;-83
2024/03/11 12:36:46;;;;;;;4.93;1.17;;;16.00;83.50;;;;;;4953565;28;20779;-83
2024/03/11 12:39:20;;;;;;;2.30;1.47;;;16.20;82.80;;;;;;4946736;28;20427;-83
2024/03/11 12:41:47;;;;;;;0.90;0.90;;;16.00;82.40;;;;;;4952757;28;20441;-84
2024/03/11 12:44:19;;;;;;;0.90;0.80;;;16.40;83.70;;;;;;4951278;28;20471;-82
2024/03/11 12:46:53;;;;;;;1.10;1.00;;;16.20;82.10;;;;;;4952796;28;20522;-84
2024/03/11 12:49:27;;;;;;;1.10;1.00;;;16.00;82.50;;;;;;4949978;28;20457;-82
2024/03/11 12:52:08;;;;;;;0.90;0.80;;;15.90;83.50;;;;;;4947131;28;20467;-82
2024/03/11 12:54:34;;;;;;;0.63;0.63;;;14.90;83.90;;;;;;4948892;28;20461;-83
2024/03/11 12:57:10;;;;;;;9.23;4.83;;;14.70;84.80;;;;;;4951823;28;20419;-83
2024/03/11 12:59:38;;;;;;;1.20;1.07;;;14.80;85.10;;;;;;4943852;28;20484;-83
2024/03/11 13:02:11;;;;;;;2.40;1.50;;;15.70;85.40;;;;;;4952976;28;20418;-83
2024/03/11 13:04:37;;;;;;;0.90;0.80;;;16.30;81.90;;;;;;4945991;28;21097;-83
2024/03/11 13:07:06;;;;;;;1.00;0.90;;;16.70;81.10;;;;;;4951771;28;20427;-84
2024/03/11 13:09:32;;;;;;;1.00;0.90;;;17.00;80.00;;;;;;4952503;28;20187;-84
2024/03/11 13:12:03;;;;;;;1.07;0.97;;;17.10;78.70;;;;;;4952972;28;20450;-83
2024/03/11 13:14:29;;;;;;;1.43;1.20;;;17.00;79.10;;;;;;4951929;28;20509;-83
2024/03/11 13:16:56;;;;;;;1.00;0.90;;;17.40;80.20;;;;;;4948222;28;20787;-83
2024/03/11 13:19:25;;;;;;;1.10;1.00;;;17.70;78.20;;;;;;4952844;28;20419;-85
2024/03/11 13:21:55;;;;;;;0.90;0.80;;;17.40;78.30;;;;;;4948742;28;20422;-83
2024/03/11 13:24:24;;;;;;;0.83;0.83;;;17.20;79.80;;;;;;4948834;28;20502;-83
2024/03/11 13:26:53;;;;;;;1.00;0.90;;;17.30;78.80;;;;;;4944712;28;20578;-83
2024/03/11 13:29:22;;;;;;;0.90;0.80;;;17.20;78.40;;;;;;4940297;28;20427;-83
2024/03/11 13:31:48;;;;;;;0.93;0.83;;;16.60;79.10;;;;;;4947945;28;20466;-84
2024/03/11 13:34:16;;;;;;;0.90;0.80;;;16.70;80.00;;;;;;4952086;28;20493;-84
2024/03/11 13:36:42;;;;;;;1.10;1.00;;;17.40;80.30;;;;;;4958318;28;20427;-84
2024/03/11 13:39:17;;;;;;;1.20;1.10;;;17.80;78.50;;;;;;4961864;28;20438;-86
2024/03/11 13:41:44;;;;;;;0.87;0.80;;;17.60;79.00;;;;;;4968545;28;20191;-86
2024/03/11 13:44:10;;;;;;;0.83;0.77;;;18.00;78.60;;;;;;4971346;28;20471;-85
2024/03/11 13:46:37;;;;;;;0.97;0.87;;;18.40;79.10;;;;;;4971754;28;20445;-85
2024/03/11 13:49:03;;;;;;;1.10;1.00;;;18.40;76.80;;;;;;4974028;28;20424;-84
2024/03/11 13:51:29;;;;;;;1.63;1.53;;;18.00;78.00;;;;;;4960369;28;20491;-83
2024/03/11 13:53:55;;;;;;;1.00;0.90;;;18.30;77.60;;;;;;4954996;28;21035;-84
2024/03/11 13:56:21;;;;;;;0.90;0.80;;;18.50;77.00;;;;;;4954741;28;20560;-84
2024/03/11 13:58:46;;;;;;;1.00;0.90;;;18.10;76.80;;;;;;4951818;28;20415;-84
2024/03/11 14:01:12;;;;;;;3.20;1.93;;;17.80;77.00;;;;;;4954337;28;20190;-84
2024/03/11 14:03:40;;;;;;;1.23;1.13;;;17.90;77.20;;;;;;4954828;28;20676;-83
2024/03/11 14:06:08;;;;;;;1.10;1.00;;;17.70;76.60;;;;;;4955094;28;20182;-84
2024/03/11 14:08:35;;;;;;;1.00;0.90;;;17.90;77.60;;;;;;4954222;28;20430;-83
2024/03/11 14:11:01;;;;;;;1.10;1.10;;;17.60;77.40;;;;;;4952663;28;20822;-85
2024/03/11 14:13:26;;;;;;;0.90;0.80;;;17.40;77.50;;;;;;4954748;28;20442;-85
2024/03/11 14:15:52;;;;;;;1.07;0.90;;;17.20;78.60;;;;;;4955287;28;20842;-83
2024/03/11 14:18:18;;;;;;;0.80;0.80;;;17.60;79.20;;;;;;4955073;28;20179;-84
2024/03/11 14:20:47;;;;;;;1.00;0.90;;;18.30;77.80;;;;;;4964247;28;20632;-83
2024/03/11 14:23:14;;;;;;;1.23;1.13;;;19.10;76.60;;;;;;4954337;28;20186;-85
2024/03/11 14:25:41;;;;;;;0.93;0.83;;;19.20;75.10;;;;;;4968278;28;20797;-85
2024/03/11 14:28:07;;;;;;;1.13;1.03;;;19.20;75.00;;;;;;4968833;28;20447;-84
2024/03/11 14:30:34;;;;;;;1.30;1.20;;;18.90;74.50;;;;;;4972762;28;20486;-84
2024/03/11 14:33:01;;;;;;;2.00;1.00;;;18.50;75.00;;;;;;4967832;28;20198;-85
2024/03/11 14:35:27;;;;;;;2.00;1.20;;;18.80;75.60;;;;;;4953659;28;20429;-84
2024/03/11 14:37:55;;;;;;;1.00;0.90;;;19.00;74.80;;;;;;4951015;28;20419;-84
2024/03/11 14:40:41;;;;;;;0.90;0.80;;;18.80;75.10;;;;;;4954784;28;20178;-83
2024/03/11 14:43:12;;;;;;;1.20;0.90;;;19.10;75.00;;;;;;4951170;28;20809;-84
2024/03/11 14:45:38;;;;;;;1.10;1.00;;;19.60;74.00;;;;;;4971549;28;21005;-84
2024/03/11 14:48:12;;;;;;;1.13;1.03;;;19.50;72.50;;;;;;4971403;28;20557;-84
2024/03/11 14:50:40;;;;;;;1.10;1.00;;;19.40;74.00;;;;;;4967249;28;20414;-84
2024/03/11 14:53:06;;;;;;;1.37;1.27;;;19.50;74.10;;;;;;4954022;28;20461;-84
2024/03/11 14:55:36;;;;;;;1.63;1.20;;;19.60;73.10;;;;;;4953784;28;20422;-84
2024/03/11 14:58:02;;;;;;;1.83;1.23;;;19.70;74.00;;;;;;4951848;28;20419;-84
2024/03/11 15:00:28;;;;;;;0.97;0.87;;;19.70;73.80;;;;;;4949989;28;20421;-83
2024/03/11 15:02:53;;;;;;;1.00;0.90;;;19.30;74.00;;;;;;4947874;28;20426;-83
2024/03/11 15:05:19;;;;;;;1.00;0.90;;;18.90;74.90;;;;;;4953032;28;20358;-84
2024/03/11 15:07:56;;;;;;;2.40;1.10;;;19.20;74.80;;;;;;4963921;28;20190;-84
2024/03/11 15:10:23;;;;;;;0.90;0.80;;;19.60;74.40;;;;;;4974372;28;20421;-84
2024/03/11 15:12:48;;;;;;;1.57;1.00;;;19.90;72.60;;;;;;4968317;28;20457;-84
2024/03/11 15:15:14;;;;;;;2.40;1.17;;;20.00;73.00;;;;;;4968286;28;20804;-84
2024/03/11 15:17:40;;;;;;;0.90;0.80;;;19.70;72.70;;;;;;4952522;28;20430;-84
2024/03/11 15:20:07;;;;;;;0.90;0.90;;;19.60;72.40;;;;;;4953099;28;20422;-84
2024/03/11 15:22:32;;;;;;;1.00;0.90;;;19.90;72.60;;;;;;4973561;28;20266;-84
2024/03/11 15:24:59;;;;;;;1.00;0.90;;;20.30;72.30;;;;;;4956282;28;20476;-84
2024/03/11 15:27:25;;;;;;;1.00;0.97;;;20.60;71.10;;;;;;4956390;28;20424;-85
2024/03/11 15:29:50;;;;;;;2.03;1.20;;;20.60;71.50;;;;;;4973526;28;20858;-84
2024/03/11 15:32:17;;;;;;;1.10;1.00;;;20.50;71.00;;;;;;4956904;28;20269;-84
2024/03/11 15:34:43;;;;;;;1.20;1.10;;;20.00;71.70;;;;;;4957020;28;20198;-85
2024/03/11 15:37:10;;;;;;;1.10;1.00;;;19.30;72.80;;;;;;4957569;28;20441;-84
2024/03/11 15:39:38;;;;;;;3.87;1.10;;;18.80;73.90;;;;;;4956297;28;20210;-84
2024/03/11 15:42:06;;;;;;;1.33;1.23;;;18.40;74.60;;;;;;4961237;28;20433;-83
2024/03/11 15:44:32;;;;;;;1.07;1.00;;;18.10;75.40;;;;;;4964517;28;20508;-84
2024/03/11 15:46:57;;;;;;;1.03;0.93;;;17.70;76.30;;;;;;4954167;28;20450;-84
2024/03/11 15:49:23;;;;;;;1.10;1.03;;;17.50;76.90;;;;;;4956840;28;20446;-84
2024/03/11 15:51:51;;;;;;;1.10;1.00;;;17.30;77.10;;;;;;4974609;28;20260;-84
2024/03/11 15:54:21;;;;;;;1.97;1.63;;;17.10;77.40;;;;;;4957047;28;20700;-86
2024/03/11 15:56:47;;;;;;;1.10;1.00;;;16.80;78.00;;;;;;4956282;28;20433;-84
2024/03/11 15:59:12;;;;;;;1.73;1.63;;;16.60;78.60;;;;;;4956830;28;20422;-84
2024/03/11 16:01:40;;;;;;;1.10;1.00;;;16.40;79.30;;;;;;4957209;28;20561;-83
2024/03/11 16:04:09;;;;;;;1.20;1.10;;;16.30;79.50;;;;;;4978338;28;20206;-84
2024/03/11 16:06:34;;;;;;;1.47;1.10;;;16.30;79.60;;;;;;4969626;28;20945;-85
2024/03/11 16:09:02;;;;;;;1.07;0.97;;;16.20;80.10;;;;;;4956601;28;20514;-83
2024/03/11 16:11:27;;;;;;;1.10;1.00;;;16.00;80.80;;;;;;4956706;28;20234;-84
2024/03/11 16:13:56;;;;;;;1.10;1.00;;;16.00;80.40;;;;;;4973922;28;20474;-86
2024/03/11 16:16:22;;;;;;;0.93;0.90;;;15.90;80.70;;;;;;4955801;28;20410;-84
2024/03/11 16:18:49;;;;;;;0.90;0.80;;;15.80;80.90;;;;;;4955408;28;20438;-85
2024/03/11 16:21:14;;;;;;;1.47;1.20;;;15.60;81.60;;;;;;4956807;28;20430;-85
2024/03/11 16:23:40;;;;;;;2.10;1.30;;;15.50;81.60;;;;;;4955781;28;20533;-84
2024/03/11 16:26:06;;;;;;;1.00;1.00;;;15.40;81.70;;;;;;4957313;28;20663;-84
2024/03/11 16:28:32;;;;;;;1.03;0.97;;;15.30;82.30;;;;;;4957277;28;20190;-85
2024/03/11 16:30:58;;;;;;;2.07;1.10;;;15.20;82.60;;;;;;4970694;28;20179;-84
2024/03/11 16:33:25;;;;;;;3.53;1.47;;;15.00;83.60;;;;;;4956458;28;20453;-86
2024/03/11 16:35:50;;;;;;;1.07;0.97;;;14.90;84.00;;;;;;4954178;28;20213;-84
2024/03/11 16:38:16;;;;;;;1.30;1.10;;;14.70;84.30;;;;;;4956104;28;20446;-84
2024/03/11 16:40:42;;;;;;;1.10;1.10;;;14.60;84.60;;;;;;4955302;28;20735;-84
2024/03/11 16:43:09;;;;;;;1.57;1.03;;;14.50;84.70;;;;;;4955898;28;20239;-84
2024/03/11 16:45:36;;;;;;;1.00;0.90;;;14.30;85.20;;;;;;4971038;28;20235;-84
2024/03/11 16:48:03;;;;;;;1.53;1.23;;;14.30;85.70;;;;;;4951736;28;20423;-84
2024/03/11 16:50:29;;;;;;;1.30;1.10;;;14.10;86.40;;;;;;4956697;28;20414;-85
2024/03/11 16:52:55;;;;;;;1.50;1.07;;;14.00;87.10;;;;;;4954798;28;20528;-84
2024/03/11 16:55:24;;;;;;;1.10;1.00;;;13.90;87.70;;;;;;4957138;28;20202;-84
2024/03/11 16:57:51;;;;;;;1.03;0.93;;;13.80;88.20;;;;;;4968040;28;20413;-84
2024/03/11 17:00:20;;;;;;;1.20;1.10;;;13.70;88.70;;;;;;4954242;28;20417;-84
2024/03/11 17:02:52;;;;;;;1.13;1.03;;;13.60;89.10;;;;;;4955751;28;20496;-84
2024/03/11 17:05:21;;;;;;;1.40;1.30;;;13.50;89.50;;;;;;4955719;28;20452;-84
2024/03/11 17:07:57;;;;;;;1.43;1.40;;;13.40;89.90;;;;;;4970674;28;20521;-84
2024/03/11 17:10:27;;;;;;;1.83;1.73;;;13.30;90.10;;;;;;4950523;28;20479;-84
2024/03/11 17:12:54;;;;;;;2.17;2.00;;;13.10;90.50;;;;;;4955469;28;20508;-84
2024/03/11 17:15:21;;;;;;;1.20;1.20;;;13.00;90.90;;;;;;4968957;28;20449;-84
2024/03/11 17:17:50;;;;;;;1.17;1.07;;;12.90;91.40;;;;;;4974345;28;20429;-84
2024/03/11 17:20:23;;;;;;;1.70;1.63;;;12.80;92.00;;;;;;4961408;28;20472;-84
2024/03/11 17:22:53;;;;;;;1.27;1.17;;;12.70;92.10;;;;;;4955664;28;20453;-84
2024/03/11 17:25:24;;;;;;;1.10;1.00;;;12.60;92.50;;;;;;4948900;28;20574;-84
2024/03/11 17:27:57;;;;;;;4.00;1.30;;;12.60;92.70;;;;;;4955387;28;20516;-84
2024/03/11 17:30:27;;;;;;;1.20;1.17;;;12.50;93.10;;;;;;4949762;28;20512;-85
2024/03/11 17:32:54;;;;;;;2.03;1.90;;;12.40;93.70;;;;;;4954058;28;21128;-84
2024/03/11 17:35:24;;;;;;;1.37;1.30;;;12.40;94.00;;;;;;4953504;28;20466;-84
2024/03/11 17:37:50;;;;;;;1.83;1.30;;;12.30;94.20;;;;;;4955215;28;20425;-84
2024/03/11 17:40:21;;;;;;;2.50;1.60;;;12.10;94.70;;;;;;4957090;28;20418;-84
2024/03/11 17:42:47;;;;;;;1.70;1.60;;;12.00;95.10;;;;;;4956686;28;20418;-84
2024/03/11 17:45:16;;;;;;;2.83;1.77;;;12.00;95.10;;;;;;4957087;28;20458;-84
2024/03/11 17:47:44;;;;;;;1.67;1.43;;;11.80;95.40;;;;;;4956009;28;20426;-83
2024/03/11 17:50:14;;;;;;;2.83;2.63;;;11.80;95.50;;;;;;4957144;28;20418;-84
2024/03/11 17:52:44;;;;;;;6.17;3.53;;;11.60;95.80;;;;;;4974212;28;20461;-84